Montreal, Missouri
Current Conditions -  °F | °C
As of 4:35 PM on Tuesday 21 Oct 2014 (Local Time) from KH21 Reporting Station
Clear Clear  
Wind Chill: 72°   Ceiling: Unl
Heat Index: 72°   Visibility: 10mi
Dew Point: 41°   Wind: 3mph
Humidity: 33%   Direction: 280°W
Pressure: 30.1"   Gusts: NA
Location:  37.97°N, 92.59°W
Report Text: KH21 212135Z AUTO 28003KT 10SM CLR 22/05 A3010 RMK AO2
Loading
Personal Weather Stations






























Interactive Weather Map New forecast layout! Learn more

10-Day Weather Forecast

Advertisements
Track Severe Weather on mobile